createdAt,value
2023-03-15T00:00:56.637Z,72.71
2023-03-15T00:02:00.127Z,72.81
2023-03-15T00:03:02.368Z,72.81
2023-03-15T00:04:04.838Z,72.94
2023-03-15T00:05:09.330Z,72.96
2023-03-15T00:06:13.305Z,73.12
2023-03-15T00:07:15.278Z,73.21
2023-03-15T00:08:17.894Z,73.28
2023-03-15T00:09:20.948Z,73.46
2023-03-15T00:10:22.954Z,73.63
2023-03-15T00:11:24.844Z,73.81
2023-03-15T00:12:26.773Z,73.79
2023-03-15T00:13:33.639Z,74.13
2023-03-15T00:14:36.277Z,74.39
2023-03-15T00:15:51.758Z,74.38
2023-03-15T00:16:53.805Z,74.44
2023-03-15T00:17:55.770Z,74.60
2023-03-15T00:18:59.937Z,74.67
2023-03-15T00:20:03.210Z,74.77
2023-03-15T00:21:05.128Z,74.90
2023-03-15T00:22:09.904Z,75.04
2023-03-15T00:23:12.734Z,74.98
2023-03-15T00:24:15.318Z,75.04
2023-03-15T00:25:19.420Z,75.14
2023-03-15T00:26:22.401Z,75.32
2023-03-15T00:27:24.434Z,75.40
2023-03-15T00:28:26.324Z,75.55
2023-03-15T00:29:28.360Z,75.58
2023-03-15T00:30:31.028Z,75.84
2023-03-15T00:31:33.141Z,75.92
2023-03-15T00:32:35.138Z,76.03
2023-03-15T00:33:37.416Z,75.87
2023-03-15T00:34:39.321Z,76.34
2023-03-15T00:35:43.233Z,76.45
2023-03-15T00:36:47.353Z,76.40
2023-03-15T00:37:56.511Z,76.47
2023-03-15T00:38:58.508Z,76.57
2023-03-15T00:40:00.530Z,76.71
2023-03-15T00:41:14.847Z,76.92
2023-03-15T00:42:17.432Z,76.91
2023-03-15T00:43:19.374Z,76.88
2023-03-15T00:44:21.777Z,76.81
2023-03-15T00:45:24.018Z,76.97
2023-03-15T00:46:26.330Z,76.88
2023-03-15T00:47:28.359Z,76.83
2023-03-15T00:48:31.380Z,77.03
2023-03-15T00:49:33.557Z,77.04
2023-03-15T00:50:38.767Z,77.12
2023-03-15T00:51:40.941Z,77.28
2023-03-15T00:52:42.989Z,77.28
2023-03-15T00:53:47.397Z,77.38
2023-03-15T00:54:54.058Z,77.52
2023-03-15T00:55:56.346Z,77.66
2023-03-15T00:57:02.103Z,77.66
2023-03-15T00:58:04.267Z,77.63
2023-03-15T00:59:06.504Z,77.68
2023-03-15T01:00:12.682Z,77.78
2023-03-15T01:01:17.641Z,77.72
2023-03-15T01:02:20.067Z,77.78
2023-03-15T01:03:21.992Z,77.94
2023-03-15T01:04:25.016Z,77.83
2023-03-15T01:05:27.470Z,77.98
2023-03-15T01:06:29.602Z,78.05
2023-03-15T01:07:32.248Z,78.07
2023-03-15T01:08:34.565Z,78.35
2023-03-15T01:09:36.747Z,78.36
2023-03-15T01:10:38.832Z,78.38
2023-03-15T01:11:40.869Z,78.48
2023-03-15T01:12:43.844Z,78.62
2023-03-15T01:13:47.721Z,78.62
2023-03-15T01:14:49.734Z,78.67
2023-03-15T01:15:53.066Z,78.83
2023-03-15T01:16:55.825Z,78.88
2023-03-15T01:17:57.730Z,78.97
2023-03-15T01:18:59.623Z,79.13
2023-03-15T01:20:01.789Z,79.17
2023-03-15T01:21:11.526Z,79.27
2023-03-15T01:22:13.914Z,79.55
2023-03-15T01:23:16.220Z,79.55
2023-03-15T01:24:18.150Z,79.76
2023-03-15T01:25:20.038Z,79.71
2023-03-15T01:26:22.927Z,79.84
2023-03-15T01:27:25.910Z,80.01
2023-03-15T01:28:28.506Z,80.12
2023-03-15T01:29:30.398Z,80.08
2023-03-15T01:30:33.074Z,80.24
2023-03-15T01:31:35.196Z,80.33
2023-03-15T01:32:37.347Z,80.29
2023-03-15T01:33:39.535Z,80.48
2023-03-15T01:34:42.016Z,80.54
2023-03-15T01:35:44.192Z,80.58
2023-03-15T01:36:51.521Z,80.45
2023-03-15T01:37:53.537Z,80.50
2023-03-15T01:38:55.526Z,80.80
2023-03-15T01:39:57.626Z,80.83
2023-03-15T01:41:00.639Z,80.92
2023-03-15T01:42:03.385Z,80.88
2023-03-15T01:43:09.054Z,80.91
2023-03-15T01:44:15.957Z,81.02
2023-03-15T01:45:56.880Z,81.07
2023-03-15T01:46:59.209Z,81.15
2023-03-15T01:48:01.974Z,81.26
2023-03-15T01:49:13.414Z,81.25
2023-03-15T01:50:17.344Z,81.32
2023-03-15T01:51:23.161Z,81.39
2023-03-15T01:52:29.487Z,81.50
2023-03-15T01:53:32.698Z,81.71
2023-03-15T01:55:06.000Z,81.66
2023-03-15T01:56:10.333Z,81.72
2023-03-15T01:57:21.739Z,81.86
2023-03-15T01:58:25.671Z,81.92
2023-03-15T01:59:37.115Z,82.11
2023-03-15T02:00:40.258Z,82.21
2023-03-15T02:01:43.210Z,82.27
2023-03-15T02:02:57.963Z,82.37
2023-03-15T02:04:05.741Z,82.36
2023-03-15T02:05:11.413Z,82.57
2023-03-15T02:06:17.766Z,82.64
2023-03-15T02:07:23.022Z,82.85
2023-03-15T02:08:28.352Z,82.95
2023-03-15T02:09:46.063Z,82.97
2023-03-15T02:10:51.493Z,83.07
2023-03-15T02:11:54.051Z,83.15
2023-03-15T02:12:59.390Z,83.28
2023-03-15T02:14:03.837Z,83.34
2023-03-15T02:15:07.806Z,83.40
2023-03-15T02:16:12.895Z,83.56
2023-03-15T02:17:15.101Z,83.53
2023-03-15T02:18:17.520Z,83.65
2023-03-15T02:19:32.476Z,83.77
2023-03-15T02:20:41.200Z,83.74
2023-03-15T02:21:46.857Z,83.77
2023-03-15T02:22:55.485Z,83.98
2023-03-15T02:24:01.157Z,84.01
2023-03-15T02:25:12.840Z,84.26
2023-03-15T02:27:32.446Z,84.27
2023-03-15T02:28:36.795Z,84.39
2023-03-15T02:29:39.034Z,84.45
2023-03-15T02:30:43.120Z,84.68
2023-03-15T02:31:45.575Z,84.71
2023-03-15T02:32:48.626Z,84.80
2023-03-15T02:33:52.912Z,84.70
2023-03-15T02:34:55.284Z,84.73
2023-03-15T02:36:12.654Z,84.70
2023-03-15T02:37:14.844Z,84.82
2023-03-15T02:38:17.737Z,84.77
2023-03-15T02:39:21.911Z,84.99
2023-03-15T02:40:26.818Z,85.12
2023-03-15T02:41:40.895Z,85.13
2023-03-15T02:42:43.414Z,85.30
2023-03-15T02:43:48.100Z,85.30
2023-03-15T02:44:51.156Z,85.50
2023-03-15T02:45:53.720Z,85.50
2023-03-15T02:46:59.612Z,85.63
2023-03-15T02:48:04.256Z,85.74
2023-03-15T02:49:07.896Z,85.95
2023-03-15T02:50:10.772Z,86.08
2023-03-15T02:51:27.992Z,86.06
2023-03-15T02:52:30.017Z,86.18
2023-03-15T02:53:32.102Z,86.21
2023-03-15T02:54:35.408Z,86.31
2023-03-15T02:55:38.109Z,86.25
2023-03-15T02:56:40.980Z,86.28
2023-03-15T02:57:43.053Z,86.39
2023-03-15T02:58:45.228Z,86.38
2023-03-15T02:59:47.314Z,86.26
2023-03-15T03:00:49.790Z,86.31
2023-03-15T03:01:52.498Z,86.25
2023-03-15T03:02:54.963Z,86.39
2023-03-15T03:03:56.862Z,86.34
2023-03-15T03:04:58.745Z,86.54
2023-03-15T03:06:00.659Z,86.77
2023-03-15T03:07:02.864Z,86.87
2023-03-15T03:08:07.051Z,87.01
2023-03-15T03:09:10.494Z,87.02
2023-03-15T03:10:16.728Z,87.14
2023-03-15T03:11:18.723Z,87.21
2023-03-15T03:12:20.616Z,87.17
2023-03-15T03:13:22.789Z,87.44
2023-03-15T03:14:26.166Z,87.50
2023-03-15T03:15:28.085Z,87.82
2023-03-15T03:16:30.308Z,87.88
2023-03-15T03:17:34.543Z,87.90
2023-03-15T03:18:37.252Z,88.10
2023-03-15T03:19:39.475Z,88.17
2023-03-15T03:20:41.551Z,88.24
2023-03-15T03:21:43.424Z,88.42
2023-03-15T03:22:45.800Z,88.51
2023-03-15T03:23:47.873Z,88.45
2023-03-15T03:24:52.527Z,88.53
2023-03-15T03:25:55.954Z,88.51
2023-03-15T03:26:58.288Z,88.59
2023-03-15T03:28:00.888Z,88.71
2023-03-15T03:29:04.368Z,88.73
2023-03-15T03:30:10.786Z,89.00
2023-03-15T03:31:19.224Z,89.26
2023-03-15T03:32:21.435Z,89.35
2023-03-15T03:33:24.032Z,89.43
2023-03-15T03:34:25.908Z,89.42
2023-03-15T03:35:27.802Z,89.48
2023-03-15T03:36:29.893Z,89.64
2023-03-15T03:37:31.850Z,89.81
2023-03-15T03:38:33.887Z,89.84
2023-03-15T03:39:35.924Z,90.03
2023-03-15T03:40:38.760Z,90.36
2023-03-15T03:41:40.981Z,90.29
2023-03-15T03:42:42.905Z,90.43
2023-03-15T03:43:44.766Z,90.44
2023-03-15T03:44:46.708Z,90.41
2023-03-15T03:45:48.772Z,90.67
2023-03-15T03:46:51.174Z,90.94
2023-03-15T03:47:53.096Z,91.08
2023-03-15T03:48:55.018Z,91.09
2023-03-15T03:49:56.865Z,91.17
2023-03-15T03:50:59.313Z,91.34
2023-03-15T03:52:01.320Z,91.51
2023-03-15T03:53:04.416Z,91.47
2023-03-15T03:54:07.079Z,91.66
2023-03-15T03:55:11.858Z,91.71
2023-03-15T03:56:14.094Z,91.79
2023-03-15T03:57:16.134Z,91.91
2023-03-15T03:58:18.496Z,92.05
2023-03-15T03:59:20.490Z,92.16
2023-03-15T04:00:22.648Z,92.15
2023-03-15T04:01:25.351Z,92.19
2023-03-15T04:02:27.316Z,92.43
2023-03-15T04:03:29.867Z,92.42
2023-03-15T04:04:31.841Z,92.34
2023-03-15T04:05:34.765Z,92.58
2023-03-15T04:06:36.740Z,92.59
2023-03-15T04:07:38.880Z,92.57
2023-03-15T04:08:41.164Z,92.55
2023-03-15T04:09:43.193Z,92.55
2023-03-15T04:10:47.351Z,92.69
2023-03-15T04:11:49.461Z,92.73
2023-03-15T04:12:55.396Z,92.90
2023-03-15T04:13:57.413Z,92.79
2023-03-15T04:14:59.322Z,92.81
2023-03-15T04:16:01.787Z,92.70
2023-03-15T04:17:05.090Z,92.77
2023-03-15T04:18:07.566Z,92.81
2023-03-15T04:19:09.601Z,93.09
2023-03-15T04:20:11.883Z,93.08
2023-03-15T04:21:13.856Z,93.11
2023-03-15T04:22:16.091Z,93.20
2023-03-15T04:23:18.759Z,93.22
2023-03-15T04:24:20.668Z,93.32
2023-03-15T04:25:22.731Z,93.52
2023-03-15T04:26:25.689Z,93.55
2023-03-15T04:27:28.793Z,93.64
2023-03-15T04:28:31.956Z,93.72
2023-03-15T04:29:34.109Z,93.75
2023-03-15T04:30:37.129Z,93.71
2023-03-15T04:31:39.059Z,93.82
2023-03-15T04:32:41.899Z,93.64
2023-03-15T04:33:44.016Z,93.73
2023-03-15T04:34:46.011Z,93.80
2023-03-15T04:35:47.986Z,93.86
2023-03-15T04:36:50.196Z,93.89
2023-03-15T04:37:53.844Z,93.71
2023-03-15T04:38:57.249Z,93.62
2023-03-15T04:40:00.980Z,93.71
2023-03-15T04:41:05.176Z,93.82
2023-03-15T04:42:07.467Z,93.94
2023-03-15T04:43:09.892Z,94.08
2023-03-15T04:44:11.898Z,94.24
2023-03-15T04:45:13.947Z,94.22
2023-03-15T04:46:16.234Z,94.07
2023-03-15T04:47:18.385Z,94.23
2023-03-15T04:48:20.383Z,94.24
2023-03-15T04:49:22.419Z,94.16
2023-03-15T04:50:25.424Z,94.34
2023-03-15T04:51:27.415Z,94.39
2023-03-15T04:52:29.514Z,94.28
2023-03-15T04:53:31.502Z,94.19
2023-03-15T04:54:33.954Z,94.21
2023-03-15T04:55:35.874Z,94.17
2023-03-15T04:56:39.155Z,94.33
2023-03-15T04:57:41.062Z,94.52
2023-03-15T04:58:42.961Z,94.49
2023-03-15T04:59:44.845Z,94.49
2023-03-15T05:00:47.056Z,94.58
2023-03-15T05:01:49.178Z,94.49
2023-03-15T05:02:51.140Z,94.35
2023-03-15T05:03:54.154Z,94.40
2023-03-15T05:04:56.172Z,94.42
2023-03-15T05:05:58.065Z,94.54
2023-03-15T05:07:00.092Z,94.73
2023-03-15T05:08:02.312Z,94.58
2023-03-15T05:09:04.427Z,94.56
2023-03-15T05:10:07.513Z,94.61
2023-03-15T05:11:09.425Z,94.57
2023-03-15T05:12:12.398Z,94.50
2023-03-15T05:13:14.394Z,94.42
2023-03-15T05:14:16.437Z,94.46
2023-03-15T05:15:18.632Z,94.62
2023-03-15T05:16:21.068Z,94.55
2023-03-15T05:17:23.261Z,94.45
2023-03-15T05:18:25.157Z,94.40
2023-03-15T05:19:27.043Z,94.67
2023-03-15T05:20:29.121Z,94.70
2023-03-15T05:21:31.015Z,94.54
2023-03-15T05:22:33.611Z,94.40
2023-03-15T05:23:35.613Z,94.29
2023-03-15T05:24:37.503Z,94.13
2023-03-15T05:25:39.597Z,94.09
2023-03-15T05:26:41.909Z,93.92
2023-03-15T05:27:44.906Z,93.76
2023-03-15T05:28:47.057Z,93.59
2023-03-15T05:29:48.967Z,93.67
2023-03-15T05:30:53.335Z,93.61
2023-03-15T05:31:55.635Z,93.38
2023-03-15T05:32:59.912Z,93.29
2023-03-15T05:34:02.688Z,93.21
2023-03-15T05:35:06.667Z,93.04
2023-03-15T05:36:09.190Z,92.88
2023-03-15T05:37:11.157Z,92.69
2023-03-15T05:38:13.550Z,92.47
2023-03-15T05:39:15.440Z,92.35
2023-03-15T05:40:18.114Z,92.30
2023-03-15T05:41:20.053Z,92.21
2023-03-15T05:42:24.036Z,91.95
2023-03-15T05:43:25.942Z,91.89
2023-03-15T05:44:27.924Z,91.99
2023-03-15T05:45:29.808Z,91.93
2023-03-15T05:46:32.114Z,91.88
2023-03-15T05:47:34.246Z,91.84
2023-03-15T05:48:36.336Z,91.77
2023-03-15T05:49:38.232Z,91.61
2023-03-15T05:50:40.747Z,91.31
2023-03-15T05:51:42.746Z,91.24
2023-03-15T05:52:44.940Z,91.06
2023-03-15T05:53:46.826Z,90.78
2023-03-15T05:54:49.616Z,90.90
2023-03-15T05:55:52.171Z,90.93
2023-03-15T05:56:54.167Z,91.24
2023-03-15T05:57:56.046Z,92.26
2023-03-15T05:58:57.925Z,91.70
2023-03-15T05:59:59.808Z,91.25
2023-03-15T06:01:03.671Z,90.93
2023-03-15T06:02:06.603Z,90.74
2023-03-15T06:03:08.519Z,90.49
2023-03-15T06:04:10.551Z,90.34
2023-03-15T06:05:12.929Z,90.37
2023-03-15T06:06:15.383Z,90.14
2023-03-15T06:07:19.694Z,90.04
2023-03-15T06:08:21.774Z,90.01
2023-03-15T06:09:23.786Z,89.93
2023-03-15T06:10:25.802Z,89.79
2023-03-15T06:11:28.098Z,89.66
2023-03-15T06:12:29.997Z,89.70
2023-03-15T06:13:32.042Z,89.73
2023-03-15T06:14:33.933Z,89.51
2023-03-15T06:15:37.110Z,89.27
2023-03-15T06:16:39.512Z,89.17
2023-03-15T06:17:42.600Z,89.34
2023-03-15T06:18:44.613Z,89.27
2023-03-15T06:19:46.744Z,89.82
2023-03-15T06:20:48.870Z,90.16
2023-03-15T06:21:50.765Z,89.94
2023-03-15T06:22:52.817Z,90.38
2023-03-15T06:23:54.866Z,91.03
2023-03-15T06:24:56.757Z,90.26
2023-03-15T06:25:58.679Z,89.75
2023-03-15T06:27:01.459Z,89.46
2023-03-15T06:28:03.478Z,89.19
2023-03-15T06:29:06.084Z,88.92
2023-03-15T06:30:09.720Z,88.50
2023-03-15T06:31:15.115Z,88.06
2023-03-15T06:32:17.480Z,87.53
2023-03-15T06:33:19.486Z,86.99
2023-03-15T06:34:22.054Z,87.08
2023-03-15T06:35:23.952Z,86.61
2023-03-15T06:36:25.943Z,86.31
2023-03-15T06:37:35.151Z,85.83
2023-03-15T06:38:32.798Z,85.74
2023-03-15T06:39:35.798Z,85.31
2023-03-15T06:40:38.015Z,85.09
2023-03-15T06:41:40.236Z,84.87
2023-03-15T06:42:42.557Z,86.35
2023-03-15T06:43:44.492Z,86.20
2023-03-15T06:44:46.607Z,85.54
2023-03-15T06:45:48.577Z,84.72
2023-03-15T06:46:50.722Z,84.34
2023-03-15T06:47:53.350Z,83.98
2023-03-15T06:48:55.847Z,83.97
2023-03-15T06:49:57.761Z,83.64
2023-03-15T06:50:59.842Z,83.28
2023-03-15T06:52:03.244Z,82.94
2023-03-15T06:53:06.246Z,82.80
2023-03-15T06:54:08.235Z,81.87
2023-03-15T06:55:10.118Z,81.20
2023-03-15T06:56:12.259Z,80.31
2023-03-15T06:57:14.419Z,79.80
2023-03-15T06:58:16.413Z,79.55
2023-03-15T06:59:18.940Z,79.19
2023-03-15T07:00:23.766Z,78.16
2023-03-15T07:01:25.676Z,77.47
2023-03-15T07:02:27.673Z,77.09
2023-03-15T07:03:29.825Z,77.32
2023-03-15T07:04:31.829Z,77.46
2023-03-15T07:05:33.714Z,77.29
2023-03-15T07:06:35.737Z,77.03
2023-03-15T07:07:37.707Z,76.90
2023-03-15T07:08:39.713Z,77.08
2023-03-15T07:09:41.790Z,77.19
2023-03-15T07:10:44.002Z,77.23
2023-03-15T07:11:46.344Z,77.33
2023-03-15T07:12:48.341Z,77.61
2023-03-15T07:13:50.215Z,78.15
2023-03-15T07:14:53.219Z,77.72
2023-03-15T07:15:56.063Z,77.61
2023-03-15T07:16:58.258Z,77.57
2023-03-15T07:18:00.234Z,77.59
2023-03-15T07:19:03.358Z,77.60
2023-03-15T07:20:06.310Z,77.40
2023-03-15T07:21:08.185Z,76.91
2023-03-15T07:22:11.087Z,76.44
2023-03-15T07:23:13.196Z,76.55
2023-03-15T07:24:15.412Z,76.62
2023-03-15T07:25:17.335Z,76.45
2023-03-15T07:26:19.962Z,76.52
2023-03-15T07:27:22.798Z,76.36
2023-03-15T07:28:26.203Z,76.48
2023-03-15T07:29:28.387Z,76.51
2023-03-15T07:30:30.585Z,76.05
2023-03-15T07:31:32.607Z,75.49
2023-03-15T07:32:34.552Z,75.22
2023-03-15T07:33:38.375Z,74.79
2023-03-15T07:34:40.506Z,74.47
2023-03-15T07:35:42.635Z,74.00
2023-03-15T07:36:45.121Z,72.88
2023-03-15T07:37:47.256Z,72.29
2023-03-15T07:38:49.242Z,72.30
2023-03-15T07:39:51.114Z,72.00
2023-03-15T07:40:53.101Z,71.93
2023-03-15T07:41:55.677Z,70.96
2023-03-15T07:42:57.565Z,70.70
2023-03-15T07:43:59.631Z,70.57
2023-03-15T07:45:03.867Z,70.21
2023-03-15T07:46:06.229Z,70.56
2023-03-15T07:47:09.971Z,70.71
2023-03-15T07:48:12.748Z,70.55
2023-03-15T07:49:14.608Z,70.85
2023-03-15T07:50:17.320Z,70.89
2023-03-15T07:51:19.349Z,71.11
2023-03-15T07:52:21.585Z,70.63
2023-03-15T07:53:23.674Z,70.50
2023-03-15T07:54:26.944Z,70.29
2023-03-15T07:55:30.511Z,69.89
2023-03-15T07:56:34.977Z,69.35
2023-03-15T07:57:37.006Z,68.86
2023-03-15T07:58:38.897Z,68.88
2023-03-15T07:59:40.975Z,68.95
2023-03-15T08:00:43.133Z,68.85
2023-03-15T08:01:45.073Z,68.76
2023-03-15T08:02:47.309Z,68.33
2023-03-15T08:03:49.205Z,67.92
2023-03-15T08:04:51.189Z,68.01
2023-03-15T08:05:53.192Z,68.48
2023-03-15T08:06:55.644Z,68.16
2023-03-15T08:07:57.686Z,68.99
2023-03-15T08:08:59.682Z,69.48
2023-03-15T08:11:13.675Z,69.35
2023-03-15T08:12:15.574Z,69.39
2023-03-15T08:13:17.556Z,69.19
2023-03-15T08:14:19.551Z,69.21
2023-03-15T08:15:21.555Z,69.15
2023-03-15T08:16:23.718Z,69.05
2023-03-15T08:17:25.714Z,69.26
2023-03-15T08:18:27.572Z,69.27
2023-03-15T08:19:29.509Z,68.97
2023-03-15T08:20:32.123Z,68.84
2023-03-15T08:21:34.402Z,68.92
2023-03-15T08:22:40.228Z,68.92
2023-03-15T08:23:43.361Z,69.46
2023-03-15T08:24:45.436Z,69.87
2023-03-15T08:25:50.699Z,70.28
2023-03-15T08:26:52.905Z,70.45
2023-03-15T08:27:55.779Z,70.56
2023-03-15T08:28:57.652Z,70.95
2023-03-15T08:30:00.409Z,71.11
2023-03-15T08:31:08.456Z,71.21
2023-03-15T08:32:12.745Z,70.90
2023-03-15T08:33:16.012Z,70.52
2023-03-15T08:34:18.723Z,70.63
2023-03-15T08:35:21.482Z,70.68
2023-03-15T08:36:24.071Z,70.80
2023-03-15T08:37:26.171Z,70.43
2023-03-15T08:38:28.145Z,70.20
2023-03-15T08:39:30.132Z,69.68
2023-03-15T08:40:33.076Z,69.08
2023-03-15T08:41:36.497Z,68.85
2023-03-15T08:42:38.520Z,69.11
2023-03-15T08:43:41.339Z,68.54
2023-03-15T08:44:43.353Z,68.88
2023-03-15T08:46:00.323Z,69.07
2023-03-15T08:46:50.946Z,68.79
2023-03-15T08:49:09.728Z,68.24
2023-03-15T08:50:14.453Z,68.31
2023-03-15T08:51:16.441Z,68.21
2023-03-15T08:52:19.774Z,68.29
2023-03-15T08:53:22.232Z,68.28
2023-03-15T08:54:24.783Z,68.51
2023-03-15T08:55:26.774Z,68.04
2023-03-15T08:56:30.958Z,68.02
2023-03-15T08:57:34.252Z,67.73
2023-03-15T08:58:36.564Z,67.80
2023-03-15T08:59:39.268Z,68.15
2023-03-15T09:00:41.267Z,68.09
2023-03-15T09:01:44.249Z,68.49
2023-03-15T09:02:49.197Z,68.42
2023-03-15T09:03:51.208Z,68.92
2023-03-15T09:04:53.660Z,68.89
2023-03-15T09:07:08.155Z,68.46
2023-03-15T09:08:10.863Z,68.37
2023-03-15T09:09:12.878Z,68.00
2023-03-15T09:10:16.559Z,68.08
2023-03-15T09:11:19.179Z,67.65
2023-03-15T09:12:21.233Z,67.21
2023-03-15T09:13:26.141Z,67.80
2023-03-15T09:14:28.194Z,67.63
2023-03-15T09:15:30.253Z,67.98
2023-03-15T09:16:32.910Z,67.57
2023-03-15T09:17:34.964Z,67.84
2023-03-15T09:18:36.894Z,67.86
2023-03-15T09:19:39.132Z,67.93
2023-03-15T09:20:41.125Z,67.74
2023-03-15T09:21:44.981Z,68.05
2023-03-15T09:22:53.081Z,68.11
2023-03-15T09:23:55.037Z,68.33
2023-03-15T09:24:57.019Z,68.64
2023-03-15T09:25:59.078Z,68.71
2023-03-15T09:27:01.586Z,68.85
2023-03-15T09:28:05.325Z,68.80
2023-03-15T09:29:09.566Z,69.07
2023-03-15T09:30:13.534Z,69.45
2023-03-15T09:31:15.531Z,69.20
2023-03-15T09:32:17.567Z,69.35
2023-03-15T09:33:21.603Z,69.65
2023-03-15T09:34:25.380Z,69.33
2023-03-15T09:35:27.696Z,69.02
2023-03-15T09:36:30.019Z,68.95
2023-03-15T09:37:32.460Z,68.77
2023-03-15T09:38:34.436Z,69.18
2023-03-15T09:39:36.554Z,69.54
2023-03-15T09:40:41.851Z,69.15
2023-03-15T09:41:47.665Z,68.76
2023-03-15T09:44:25.191Z,69.22
2023-03-15T09:45:47.868Z,69.24
2023-03-15T09:47:10.473Z,69.14
2023-03-15T09:48:31.563Z,69.89
2023-03-15T09:49:52.379Z,69.03
2023-03-15T09:50:58.417Z,69.33
2023-03-15T09:52:04.119Z,68.77
2023-03-15T09:53:09.819Z,68.66
2023-03-15T09:54:23.970Z,68.89
2023-03-15T09:55:28.131Z,69.08
2023-03-15T09:56:36.912Z,71.19
2023-03-15T09:57:42.611Z,70.75
2023-03-15T09:58:45.612Z,70.53
2023-03-15T09:59:51.313Z,70.63
2023-03-15T10:00:58.414Z,70.78
2023-03-15T10:02:16.068Z,70.25
2023-03-15T10:03:27.818Z,70.72
2023-03-15T10:04:32.595Z,70.49
2023-03-15T10:05:47.118Z,70.07
2023-03-15T10:06:53.794Z,70.38
2023-03-15T10:07:55.791Z,69.92
2023-03-15T10:09:01.650Z,69.98
2023-03-15T10:10:07.763Z,69.81
2023-03-15T10:11:22.517Z,70.07
2023-03-15T10:12:31.221Z,69.99
2023-03-15T10:13:52.054Z,69.90
2023-03-15T10:14:57.734Z,69.56
2023-03-15T10:16:06.510Z,69.27
2023-03-15T10:17:11.734Z,69.09
2023-03-15T10:18:26.591Z,69.39
2023-03-15T10:19:49.974Z,69.62
2023-03-15T10:20:55.796Z,68.81
2023-03-15T10:22:16.049Z,68.22
2023-03-15T10:23:24.726Z,67.85
2023-03-15T10:24:30.475Z,67.71
2023-03-15T10:25:34.624Z,67.65
2023-03-15T10:26:41.046Z,67.73
2023-03-15T10:27:49.574Z,66.31
2023-03-15T10:28:52.752Z,66.35
2023-03-15T10:29:57.428Z,66.82
2023-03-15T10:31:01.499Z,66.43
2023-03-15T10:32:05.824Z,66.18
2023-03-15T10:33:17.679Z,66.29
2023-03-15T10:34:21.226Z,66.66
2023-03-15T10:35:24.368Z,66.95
2023-03-15T10:36:26.415Z,67.31
2023-03-15T10:37:28.476Z,66.91
2023-03-15T10:38:30.371Z,66.93
2023-03-15T10:39:32.335Z,65.65
2023-03-15T10:42:03.231Z,64.13
2023-03-15T10:43:15.054Z,64.64
2023-03-15T10:44:20.706Z,64.46
2023-03-15T10:45:25.158Z,64.38
2023-03-15T10:46:27.570Z,64.19
2023-03-15T10:47:29.833Z,63.32
2023-03-15T10:48:34.676Z,63.27
2023-03-15T10:49:39.229Z,63.52
2023-03-15T10:50:41.471Z,63.85
2023-03-15T10:51:48.003Z,63.47
2023-03-15T10:52:52.012Z,63.46
2023-03-15T10:53:58.262Z,62.82
2023-03-15T10:55:18.601Z,63.24
2023-03-15T10:57:40.401Z,62.74
2023-03-15T10:58:55.124Z,62.44
2023-03-15T11:00:00.995Z,62.88
2023-03-15T11:01:05.476Z,64.23
2023-03-15T11:02:19.902Z,63.85
2023-03-15T11:03:23.628Z,62.44
2023-03-15T11:04:25.840Z,61.54
2023-03-15T11:05:40.239Z,62.02
2023-03-15T11:06:55.049Z,62.42
2023-03-15T11:07:59.612Z,62.73
2023-03-15T11:09:11.370Z,63.47
2023-03-15T11:10:17.914Z,64.04
2023-03-15T11:11:20.663Z,64.89
2023-03-15T11:12:25.510Z,65.14
2023-03-15T11:13:30.178Z,65.17
2023-03-15T11:14:35.993Z,65.12
2023-03-15T11:15:41.360Z,65.00
2023-03-15T11:16:49.798Z,64.52
2023-03-15T11:17:52.066Z,64.43
2023-03-15T11:19:02.750Z,63.60
2023-03-15T11:20:30.252Z,63.40
2023-03-15T11:21:34.758Z,64.22
2023-03-15T11:22:36.788Z,64.07
2023-03-15T11:23:41.670Z,63.98
2023-03-15T11:24:43.692Z,64.00
2023-03-15T11:25:46.054Z,64.02
2023-03-15T11:26:50.278Z,64.30
2023-03-15T11:27:52.773Z,63.51
2023-03-15T11:29:01.492Z,63.32
2023-03-15T11:30:04.624Z,63.63
2023-03-15T11:31:07.317Z,64.24
2023-03-15T11:32:28.165Z,64.06
2023-03-15T11:33:43.452Z,64.03
2023-03-15T11:34:52.033Z,64.38
2023-03-15T11:35:56.810Z,64.34
2023-03-15T11:37:08.346Z,63.18
2023-03-15T11:38:19.544Z,62.66
2023-03-15T11:39:25.980Z,62.34
2023-03-15T11:40:43.933Z,62.14
2023-03-15T11:41:49.674Z,62.11
2023-03-15T11:43:00.957Z,62.60
2023-03-15T11:44:23.595Z,62.58
2023-03-15T11:45:41.625Z,62.90
2023-03-15T11:46:50.213Z,63.25
2023-03-15T11:48:01.839Z,63.56
2023-03-15T11:49:16.390Z,64.34
2023-03-15T11:50:19.352Z,64.79
2023-03-15T11:51:21.562Z,65.19
2023-03-15T11:52:26.387Z,65.47
2023-03-15T11:53:38.194Z,65.48
2023-03-15T11:54:40.905Z,66.30
2023-03-15T11:55:49.455Z,66.69
2023-03-15T11:56:55.993Z,66.62
2023-03-15T11:58:01.719Z,67.39
2023-03-15T11:59:10.122Z,67.70
2023-03-15T12:00:35.256Z,67.94
2023-03-15T12:01:42.544Z,67.80
2023-03-15T12:02:51.083Z,68.13
2023-03-15T12:04:15.570Z,68.05
2023-03-15T12:06:54.350Z,68.84
2023-03-15T12:07:59.390Z,68.72
2023-03-15T12:09:02.954Z,68.71
2023-03-15T12:10:20.939Z,68.54
2023-03-15T12:11:26.708Z,68.77
2023-03-15T12:12:32.824Z,68.90
2023-03-15T12:13:35.537Z,68.89
2023-03-15T12:14:37.516Z,68.89
2023-03-15T12:15:42.540Z,69.26
2023-03-15T12:16:45.690Z,69.34
2023-03-15T12:17:55.779Z,70.19
2023-03-15T12:19:00.289Z,69.67
2023-03-15T12:20:12.334Z,69.62
2023-03-15T12:21:23.009Z,69.39
2023-03-15T12:22:29.512Z,69.81
2023-03-15T12:23:56.812Z,70.43
2023-03-15T12:25:02.624Z,70.12
2023-03-15T12:26:09.003Z,69.67
2023-03-15T12:27:19.969Z,69.46
2023-03-15T12:28:31.571Z,69.95
2023-03-15T12:29:35.122Z,70.39
2023-03-15T12:30:41.101Z,69.94
2023-03-15T12:32:04.785Z,70.51
2023-03-15T12:33:19.923Z,70.06
2023-03-15T12:35:39.480Z,70.63
2023-03-15T12:36:45.317Z,70.76
2023-03-15T12:37:50.230Z,70.35
2023-03-15T12:39:02.892Z,70.40
2023-03-15T12:40:21.103Z,70.50
2023-03-15T12:41:36.236Z,69.93
2023-03-15T12:42:42.050Z,69.44
2023-03-15T12:43:47.596Z,69.59
2023-03-15T12:44:49.735Z,69.03
2023-03-15T12:45:52.093Z,69.03
2023-03-15T12:46:57.154Z,68.99
2023-03-15T12:48:02.846Z,69.27
2023-03-15T12:49:17.679Z,69.79
2023-03-15T12:50:45.413Z,69.68
2023-03-15T12:52:12.628Z,70.27
2023-03-15T12:53:31.005Z,69.53
2023-03-15T12:56:22.101Z,69.35
2023-03-15T12:57:29.598Z,69.31
2023-03-15T12:58:40.254Z,70.29
2023-03-15T12:59:48.839Z,69.89
2023-03-15T13:00:53.106Z,69.30
2023-03-15T13:01:57.822Z,69.06
2023-03-15T13:03:09.694Z,68.74
2023-03-15T13:04:12.455Z,68.79
2023-03-15T13:06:46.937Z,68.93
2023-03-15T13:07:55.158Z,68.80
2023-03-15T13:09:17.469Z,68.51
2023-03-15T13:10:26.216Z,68.17
2023-03-15T13:11:34.893Z,68.85
2023-03-15T13:12:40.665Z,69.20
2023-03-15T13:13:52.254Z,69.80
2023-03-15T13:15:04.318Z,69.60
2023-03-15T13:16:19.596Z,69.42
2023-03-15T13:17:51.391Z,69.33
2023-03-15T13:19:03.074Z,69.24
2023-03-15T13:20:31.270Z,69.25
2023-03-15T13:21:36.606Z,69.01
2023-03-15T13:22:55.512Z,69.06
2023-03-15T13:23:57.711Z,68.86
2023-03-15T13:25:15.136Z,68.60
2023-03-15T13:26:30.224Z,68.44
2023-03-15T13:27:50.891Z,68.54
2023-03-15T13:29:05.844Z,68.40
2023-03-15T13:30:28.248Z,68.80
2023-03-15T13:31:31.680Z,68.73
2023-03-15T13:32:34.380Z,68.86
2023-03-15T13:33:36.618Z,68.78
2023-03-15T13:34:39.885Z,68.68
2023-03-15T13:35:44.912Z,68.69
2023-03-15T13:36:50.128Z,68.87
2023-03-15T13:37:55.839Z,69.06
2023-03-15T13:38:58.133Z,69.48
2023-03-15T13:40:06.910Z,69.78
2023-03-15T13:41:24.645Z,69.95
2023-03-15T13:42:27.978Z,69.70
2023-03-15T13:43:36.503Z,69.70
2023-03-15T13:44:38.529Z,69.90
2023-03-15T13:45:43.831Z,70.77
2023-03-15T13:46:48.896Z,70.29
2023-03-15T13:47:50.911Z,70.24
2023-03-15T13:48:57.800Z,70.32
2023-03-15T13:50:05.400Z,70.02
2023-03-15T13:51:26.285Z,70.24
2023-03-15T13:52:28.954Z,70.15
2023-03-15T13:53:48.940Z,70.42
2023-03-15T13:54:41.559Z,70.21
2023-03-15T13:55:47.312Z,69.87
2023-03-15T13:56:59.369Z,69.98
2023-03-15T13:58:07.496Z,69.77
2023-03-15T13:59:11.409Z,69.80
2023-03-15T14:00:17.388Z,69.84
2023-03-15T14:01:21.972Z,69.70
2023-03-15T14:02:36.845Z,69.50
2023-03-15T14:03:42.030Z,69.66
2023-03-15T14:04:50.533Z,69.53
2023-03-15T14:05:55.839Z,69.79
2023-03-15T14:07:16.976Z,69.55
2023-03-15T14:08:34.623Z,69.80
2023-03-15T14:09:36.633Z,69.84
2023-03-15T14:10:39.792Z,69.68